Time;durP1;ratioP1;P1;durP2;ratioP2;P2;SDS_P1;SDS_P2;PMS_P1;PMS_P2;Temp;Humidity;BMP_temperature;BMP_pressure;BME280_temperature;BME280_humidity;BME280_pressure;Samples;Min_cycle;Max_cycle;Signal;HPM_P1;HPM_P2
2023/04/02 00:11:43;;;;;;;12.68;6.47;;;;;;;7.41;100.00;100310.38;5106617;27;20354;-60
2023/04/02 00:14:25;;;;;;;11.27;6.10;;;;;;;7.27;100.00;100311.66;5111049;28;20040;-60
2023/04/02 00:16:54;;;;;;;11.30;6.40;;;;;;;7.26;100.00;100317.09;5103201;28;20279;-58
2023/04/02 00:19:29;;;;;;;12.43;6.80;;;;;;;7.28;100.00;100329.16;5110877;28;20068;-59
2023/04/02 00:21:59;;;;;;;11.27;6.60;;;;;;;7.35;100.00;100334.72;5108274;28;20560;-58
2023/04/02 00:24:25;;;;;;;10.65;6.40;;;;;;;7.37;100.00;100338.03;5110526;28;20040;-59
2023/04/02 00:26:53;;;;;;;11.30;6.53;;;;;;;7.37;100.00;100338.03;5108492;28;20446;-58
2023/04/02 00:29:20;;;;;;;11.75;6.93;;;;;;;7.25;100.00;100340.00;5109192;28;20044;-59
2023/04/02 00:31:52;;;;;;;11.30;7.10;;;;;;;7.17;100.00;100341.66;5109510;28;20097;-59
2023/04/02 00:34:22;;;;;;;10.98;6.28;;;;;;;7.21;100.00;100353.63;5107525;28;20114;-59
2023/04/02 00:36:49;;;;;;;11.82;6.63;;;;;;;7.18;100.00;100357.38;5114068;28;20043;-59
2023/04/02 00:39:22;;;;;;;11.80;6.70;;;;;;;7.22;100.00;100363.19;5108891;28;20428;-59
2023/04/02 00:41:57;;;;;;;12.35;6.22;;;;;;;7.21;100.00;100366.81;5114579;28;20048;-60
2023/04/02 00:44:28;;;;;;;13.65;6.30;;;;;;;7.22;100.00;100373.75;5110149;28;20142;-59
2023/04/02 00:46:57;;;;;;;11.60;6.43;;;;;;;7.24;100.00;100377.06;5114255;28;20059;-59
2023/04/02 00:49:33;;;;;;;11.18;6.05;;;;;;;7.10;100.00;100375.72;5106384;28;20075;-59
2023/04/02 00:52:05;;;;;;;10.63;6.28;;;;;;;7.11;100.00;100382.63;5107186;28;20048;-59
2023/04/02 00:54:41;;;;;;;11.57;6.85;;;;;;;7.14;100.00;100389.47;5110420;28;20052;-59
2023/04/02 00:57:16;;;;;;;10.68;6.20;;;;;;;7.03;100.00;100390.44;5105834;28;20085;-59
2023/04/02 00:59:59;;;;;;;11.25;6.50;;;;;;;6.97;100.00;100406.78;5110389;28;20553;-59
2023/04/02 01:02:30;;;;;;;11.40;6.95;;;;;;;7.03;100.00;100396.53;5105211;28;20109;-59
2023/04/02 01:05:01;;;;;;;10.48;6.60;;;;;;;7.02;100.00;100404.59;5110110;28;20051;-59
2023/04/02 01:07:49;;;;;;;13.10;6.70;;;;;;;6.94;100.00;100409.72;5102128;28;20068;-59
2023/04/02 01:10:40;;;;;;;11.93;7.13;;;;;;;6.81;100.00;100413.47;5108521;28;20059;-59
2023/04/02 01:13:46;;;;;;;12.27;7.13;;;;;;;6.85;100.00;100421.94;5105789;28;20484;-59
2023/04/02 01:16:45;;;;;;;13.23;7.50;;;;;;;6.83;100.00;100421.25;5109225;28;20051;-59
2023/04/02 01:22:00;;;;;;;12.02;6.95;;;;;;;6.88;100.00;100440.94;5089062;28;20345;-58
2023/04/02 01:24:32;;;;;;;13.52;8.02;;;;;;;7.08;100.00;100441.78;5087646;28;20036;-58
2023/04/02 01:27:04;;;;;;;13.52;7.82;;;;;;;7.09;100.00;100447.91;5090715;28;20036;-59
2023/04/02 01:29:33;;;;;;;;;;;;;;;6.99;100.00;100447.91;5086548;28;20420;-59
2023/04/02 01:32:05;;;;;;;13.32;6.53;;;;;;;7.06;100.00;100453.47;5090708;28;19990;-59
2023/04/02 01:34:33;;;;;;;11.98;6.88;;;;;;;6.97;100.00;100456.91;5086150;28;20409;-59
2023/04/02 01:37:43;;;;;;;11.13;6.28;;;;;;;6.89;100.00;100466.38;5089073;28;20049;-59
2023/04/02 01:40:45;;;;;;;12.02;6.90;;;;;;;6.75;100.00;100472.03;5081353;28;20679;-59
2023/04/02 01:43:37;;;;;;;15.07;7.53;;;;;;;6.79;100.00;100473.41;5070075;28;20053;-59
2023/04/02 01:46:23;;;;;;;13.80;7.45;;;;;;;6.76;100.00;100468.41;5065149;28;20283;-59
2023/04/02 01:48:53;;;;;;;12.57;7.47;;;;;;;6.72;100.00;100477.56;5070112;28;20409;-59
2023/04/02 01:51:42;;;;;;;17.38;8.40;;;;;;;6.75;100.00;100484.34;5065321;28;20052;-59
2023/04/02 01:54:14;;;;;;;12.82;7.15;;;;;;;6.75;100.00;100485.22;5070109;28;20509;-59
2023/04/02 01:56:42;;;;;;;14.80;8.18;;;;;;;6.79;100.00;100489.22;5061799;28;20048;-59
2023/04/02 01:59:11;;;;;;;14.00;8.20;;;;;;;6.59;100.00;100496.25;5069755;28;20037;-59
2023/04/02 02:01:48;;;;;;;14.93;9.20;;;;;;;6.52;100.00;100497.75;5068292;28;20044;-58
2023/04/02 02:04:16;;;;;;;17.00;9.23;;;;;;;6.44;100.00;100497.56;5068342;28;20052;-58
2023/04/02 02:06:43;;;;;;;18.52;10.77;;;;;;;6.37;100.00;100506.97;5069601;28;20486;-59
2023/04/02 02:09:23;;;;;;;19.42;11.85;;;;;;;6.28;100.00;100509.44;5065680;28;20512;-59
2023/04/02 02:11:51;;;;;;;19.58;11.93;;;;;;;6.38;100.00;100522.66;5067683;28;20123;-58
2023/04/02 02:14:21;;;;;;;20.23;11.20;;;;;;;6.49;100.00;100522.59;5064033;28;20095;-59
2023/04/02 02:16:48;;;;;;;20.40;11.80;;;;;;;6.44;100.00;100521.28;5069358;28;20071;-59
2023/04/02 02:19:31;;;;;;;20.85;10.85;;;;;;;6.38;100.00;100525.28;5064826;28;20486;-58
2023/04/02 02:22:26;;;;;;;19.52;11.88;;;;;;;6.38;100.00;100538.47;5069578;28;20049;-58
2023/04/02 02:24:56;;;;;;;20.40;10.68;;;;;;;6.38;100.00;100540.28;5064899;28;20409;-58
2023/04/02 02:30:22;;;;;;;18.35;10.43;;;;;;;6.34;100.00;100550.25;5103160;27;20377;-59
2023/04/02 02:33:15;;;;;;;22.15;10.48;;;;;;;6.28;100.00;100550.78;5111475;28;20098;-59
2023/04/02 02:35:49;;;;;;;15.60;9.00;;;;;;;6.27;100.00;100559.63;5106548;28;20382;-59
2023/04/02 02:41:33;;;;;;;15.40;9.30;;;;;;;6.20;100.00;100567.22;5127404;27;20853;-59
2023/04/02 02:44:11;;;;;;;15.02;9.70;;;;;;;6.14;100.00;100571.19;5106556;28;20035;-59
2023/04/02 02:46:45;;;;;;;16.05;9.05;;;;;;;6.14;100.00;100584.38;5107387;28;20063;-59
2023/04/02 02:49:18;;;;;;;14.90;9.27;;;;;;;6.13;100.00;100590.63;5110963;28;20073;-59
2023/04/02 02:51:52;;;;;;;15.98;9.52;;;;;;;6.12;100.00;100591.56;5106629;28;20067;-59
2023/04/02 02:54:28;;;;;;;;;;;;;;;6.19;100.00;100591.91;5111372;28;20060;-59
2023/04/02 02:57:02;;;;;;;17.05;9.60;;;;;;;6.18;100.00;100598.13;5105908;28;20384;-59
2023/04/02 02:59:30;;;;;;;15.35;9.48;;;;;;;6.38;100.00;100608.78;5110864;28;20043;-59
2023/04/02 03:02:00;;;;;;;16.52;9.75;;;;;;;6.27;100.00;100617.59;5100840;28;20112;-59
2023/04/02 03:04:29;;;;;;;16.38;10.43;;;;;;;6.22;100.00;100620.63;5110886;28;20056;-59
2023/04/02 03:06:57;;;;;;;17.52;9.85;;;;;;;6.14;100.00;100626.50;5105735;28;20465;-59
2023/04/02 03:09:44;;;;;;;15.40;9.73;;;;;;;6.12;100.00;100630.25;5110601;28;20118;-59
2023/04/02 03:12:26;;;;;;;15.73;9.70;;;;;;;6.06;100.00;100646.56;5106171;28;20518;-59
2023/04/02 03:15:33;;;;;;;15.30;9.13;;;;;;;6.08;100.00;100647.28;5110650;28;20051;-59
2023/04/02 03:18:09;;;;;;;15.23;8.82;;;;;;;6.14;100.00;100659.94;5102114;28;20565;-60
2023/04/02 03:20:42;;;;;;;13.05;8.60;;;;;;;6.22;100.00;100657.50;5110452;28;20439;-59
2023/04/02 03:23:33;;;;;;;11.95;7.63;;;;;;;6.15;100.00;100662.44;5105938;28;20051;-60
2023/04/02 03:26:06;;;;;;;13.50;7.80;;;;;;;6.15;100.00;100665.06;5109989;28;20048;-59
2023/04/02 03:28:40;;;;;;;15.02;7.65;;;;;;;6.06;100.00;100671.09;5105712;28;20121;-60
2023/04/02 03:31:22;;;;;;;12.88;7.60;;;;;;;6.20;100.00;100679.66;5110379;28;20050;-59
2023/04/02 03:33:55;;;;;;;12.48;7.80;;;;;;;6.16;100.00;100679.06;5102586;28;20450;-59
2023/04/02 03:36:47;;;;;;;11.82;7.47;;;;;;;6.13;100.00;100688.06;5109591;28;20382;-59
2023/04/02 03:39:32;;;;;;;13.43;7.60;;;;;;;6.11;100.00;100694.41;5105329;28;20050;-59
2023/04/02 03:42:08;;;;;;;14.45;8.10;;;;;;;6.15;100.00;100696.69;5104614;28;20052;-59
2023/04/02 03:44:44;;;;;;;14.15;8.60;;;;;;;6.10;100.00;100709.38;5105458;28;20048;-59
2023/04/02 03:47:18;;;;;;;14.00;8.52;;;;;;;6.04;100.00;100709.91;5109792;28;20052;-59
2023/04/02 03:49:52;;;;;;;15.63;8.80;;;;;;;6.00;100.00;100715.53;5102173;28;20044;-59
2023/04/02 03:52:26;;;;;;;15.73;9.30;;;;;;;6.10;100.00;100724.38;5097410;28;20044;-59
2023/04/02 03:54:59;;;;;;;15.45;10.20;;;;;;;6.10;100.00;100729.63;5093865;28;20055;-59
2023/04/02 03:57:42;;;;;;;15.97;10.30;;;;;;;5.96;100.00;100739.47;5095834;28;20102;-59
2023/04/02 04:00:19;;;;;;;15.63;10.25;;;;;;;6.07;100.00;100741.25;5091632;28;20199;-59
2023/04/02 04:02:56;;;;;;;15.23;10.10;;;;;;;5.94;100.00;100748.44;5095743;28;20101;-59
2023/04/02 04:05:34;;;;;;;16.15;9.73;;;;;;;5.74;100.00;100755.31;5091640;28;20044;-59
2023/04/02 04:08:07;;;;;;;16.27;10.05;;;;;;;5.86;100.00;100753.50;5092462;28;20059;-60
2023/04/02 04:10:34;;;;;;;14.55;9.50;;;;;;;6.01;100.00;100767.25;5095981;28;20473;-64
2023/04/02 04:13:14;;;;;;;14.68;9.50;;;;;;;6.03;100.00;100767.97;5091212;28;20040;-59
2023/04/02 04:15:50;;;;;;;14.68;9.10;;;;;;;6.05;100.00;100777.41;5095915;28;20063;-59
2023/04/02 04:18:42;;;;;;;14.95;8.85;;;;;;;5.72;100.00;100781.75;5090920;28;20072;-59
2023/04/02 04:21:29;;;;;;;15.98;9.57;;;;;;;5.81;100.00;100774.91;5095620;28;20085;-59
2023/04/02 04:24:06;;;;;;;14.95;9.20;;;;;;;5.74;100.00;100787.72;5087943;28;20050;-60
2023/04/02 04:26:41;;;;;;;17.52;10.13;;;;;;;5.75;100.00;100793.84;5095778;28;20036;-60
2023/04/02 04:29:36;;;;;;;18.23;10.57;;;;;;;5.66;100.00;100791.94;5091044;28;20203;-59
2023/04/02 04:32:16;;;;;;;20.60;11.18;;;;;;;5.71;100.00;100798.50;5095291;28;20457;-59
2023/04/02 04:34:52;;;;;;;18.67;11.80;;;;;;;5.71;100.00;100810.81;5091046;28;20055;-60
2023/04/02 04:37:32;;;;;;;19.20;10.68;;;;;;;5.52;100.00;100825.41;5095252;28;20055;-59
2023/04/02 04:40:10;;;;;;;15.52;9.93;;;;;;;5.74;100.00;100832.47;5089141;28;20052;-60
2023/04/02 04:42:41;;;;;;;17.15;10.88;;;;;;;5.70;100.00;100838.94;5091659;28;20095;-60
2023/04/02 04:45:34;;;;;;;17.73;10.70;;;;;;;5.68;100.00;100845.28;5095087;28;20077;-59
2023/04/02 04:48:07;;;;;;;16.38;9.68;;;;;;;5.70;100.00;100852.09;5089290;28;20051;-59
2023/04/02 04:50:55;;;;;;;16.63;10.05;;;;;;;5.64;100.00;100855.22;5095263;28;20044;-59
2023/04/02 04:53:25;;;;;;;18.17;10.73;;;;;;;5.60;100.00;100864.28;5090529;28;20048;-59
2023/04/02 04:56:01;;;;;;;22.85;10.82;;;;;;;5.52;100.00;100875.41;5094787;28;20044;-60
2023/04/02 04:58:49;;;;;;;17.95;10.45;;;;;;;5.53;100.00;100889.41;5087063;28;20040;-60
2023/04/02 05:01:23;;;;;;;20.27;11.02;;;;;;;5.45;100.00;100892.63;5094553;28;20051;-60
2023/04/02 05:04:00;;;;;;;19.55;10.77;;;;;;;5.46;100.00;100894.31;5089206;28;20044;-60
2023/04/02 05:09:37;;;;;;;21.35;11.18;;;;;;;5.31;100.00;100906.00;5106591;27;20347;-59
2023/04/02 05:12:29;;;;;;;21.70;11.40;;;;;;;5.27;100.00;100910.63;5111535;28;20043;-59
2023/04/02 05:15:03;;;;;;;20.33;11.93;;;;;;;5.39;100.00;100922.88;5136449;27;20039;-59
2023/04/02 05:17:36;;;;;;;18.85;11.02;;;;;;;5.14;100.00;100917.78;5111014;28;20511;-59
2023/04/02 05:20:15;;;;;;;22.08;10.48;;;;;;;5.37;100.00;100921.31;5106488;28;20044;-59
2023/04/02 05:22:53;;;;;;;24.60;11.88;;;;;;;5.34;100.00;100932.06;5111158;28;20048;-59
2023/04/02 05:25:27;;;;;;;19.73;11.07;;;;;;;5.11;100.00;100934.66;5106232;28;20068;-59
2023/04/02 05:28:11;;;;;;;20.80;11.48;;;;;;;5.24;100.00;100944.22;5110976;28;20048;-59
2023/04/02 05:30:48;;;;;;;21.38;12.23;;;;;;;5.14;100.00;100950.16;5103119;28;20052;-59
2023/04/02 05:33:25;;;;;;;20.20;11.02;;;;;;;5.31;100.00;100966.50;5110896;28;20050;-59
2023/04/02 05:36:17;;;;;;;23.50;13.07;;;;;;;5.10;100.00;100959.25;5108283;28;20052;-58
2023/04/02 05:38:50;;;;;;;23.15;12.18;;;;;;;4.92;100.00;100963.22;5110968;28;20043;-52
2023/04/02 05:44:18;;;;;;;25.42;13.35;;;;;;;4.74;100.00;100975.91;5109722;27;20753;-52
2023/04/02 05:46:58;;;;;;;24.35;12.70;;;;;;;4.71;100.00;100977.00;5102265;28;20052;-52
2023/04/02 05:49:35;;;;;;;26.88;13.68;;;;;;;4.75;100.00;100988.94;5110953;28;20044;-49
2023/04/02 05:52:05;;;;;;;22.48;12.75;;;;;;;4.94;100.00;100990.25;5088902;28;20050;-54
2023/04/02 05:54:38;;;;;;;27.13;12.20;;;;;;;4.94;100.00;101004.22;5110917;28;20378;-49
2023/04/02 05:57:13;;;;;;;23.15;12.50;;;;;;;4.90;100.00;101004.56;5121739;28;20074;-48
2023/04/02 05:59:46;;;;;;;24.40;13.63;;;;;;;4.86;100.00;101021.50;5093771;28;20126;-50
2023/04/02 06:05:03;;;;;;;28.85;14.35;;;;;;;4.93;100.00;101030.63;5087494;28;20183;-50
2023/04/02 06:07:56;;;;;;;26.58;14.82;;;;;;;4.88;100.00;101035.41;5090601;28;20080;-51
2023/04/02 06:10:28;;;;;;;30.27;15.23;;;;;;;4.88;100.00;101041.47;5089056;28;20045;-50
2023/04/02 06:13:02;;;;;;;28.48;15.68;;;;;;;4.72;100.00;101046.16;5087720;28;20048;-51
2023/04/02 06:15:34;;;;;;;30.65;15.70;;;;;;;4.75;100.00;101057.28;5090496;28;20094;-52
2023/04/02 06:20:42;;;;;;;31.27;16.50;;;;;;;4.87;100.00;101052.94;5107832;27;20358;-52
2023/04/02 06:23:18;;;;;;;29.80;16.33;;;;;;;4.84;100.00;101062.81;5111065;28;20043;-51
2023/04/02 06:25:56;;;;;;;28.73;15.77;;;;;;;4.85;100.00;101069.78;5106303;28;20101;-51
2023/04/02 06:28:30;;;;;;;32.35;16.33;;;;;;;4.70;100.00;101074.34;5111114;28;20052;-51
2023/04/02 06:31:01;;;;;;;31.05;15.65;;;;;;;4.63;100.00;101078.34;5106531;28;20048;-54
2023/04/02 06:33:34;;;;;;;36.03;16.33;;;;;;;4.71;100.00;101091.75;5110978;28;20040;-50
2023/04/02 06:36:02;;;;;;;33.58;16.45;;;;;;;4.73;100.00;101084.63;5102851;28;20052;-49
2023/04/02 06:38:34;;;;;;;30.35;16.10;;;;;;;4.73;100.00;101098.63;5110442;28;20055;-52
2023/04/02 06:41:07;;;;;;;36.67;17.63;;;;;;;4.75;100.00;101104.59;5107147;28;20180;-50
2023/04/02 06:43:54;;;;;;;31.52;16.55;;;;;;;4.77;100.00;101113.22;5109597;28;20054;-50
2023/04/02 06:46:47;;;;;;;34.80;15.85;;;;;;;4.69;100.00;101117.31;5105733;28;20127;-52
2023/04/02 06:49:24;;;;;;;34.53;17.05;;;;;;;4.67;100.00;101120.03;5110606;28;20048;-52
2023/04/02 06:51:59;;;;;;;29.67;16.00;;;;;;;4.88;100.00;101127.41;5106037;28;20048;-51
2023/04/02 06:54:26;;;;;;;34.47;16.55;;;;;;;4.78;100.00;101125.41;5105889;28;20056;-52
2023/04/02 06:56:58;;;;;;;37.92;17.13;;;;;;;4.76;100.00;101136.97;5110432;28;20044;-51
2023/04/02 06:59:33;;;;;;;38.45;16.58;;;;;;;4.94;99.97;101148.00;5105605;28;20032;-50
2023/04/02 07:02:17;;;;;;;31.02;15.45;;;;;;;4.58;100.00;101146.97;5106204;28;20044;-50
2023/04/02 07:04:45;;;;;;;41.00;16.25;;;;;;;4.58;100.00;101152.22;5096974;28;20048;-53
2023/04/02 07:07:12;;;;;;;31.67;16.35;;;;;;;4.56;100.00;101151.50;5100947;28;20090;-52
2023/04/02 07:09:41;;;;;;;38.25;17.00;;;;;;;4.72;100.00;101165.25;5099998;28;20044;-49
2023/04/02 07:12:11;;;;;;;34.20;16.67;;;;;;;4.49;99.57;101156.31;5107502;28;20146;-48
2023/04/02 07:14:38;;;;;;;35.50;16.63;;;;;;;4.46;100.00;101167.06;5105236;28;20036;-47
2023/04/02 07:17:05;;;;;;;36.53;15.85;;;;;;;4.65;100.00;101184.19;5109071;28;20054;-47
2023/04/02 07:19:31;;;;;;;34.90;15.65;;;;;;;4.60;98.82;101182.72;5101507;28;20058;-49
2023/04/02 07:21:58;;;;;;;43.92;15.98;;;;;;;4.57;97.94;101185.53;5089713;28;20040;-51
2023/04/02 07:24:31;;;;;;;34.08;15.57;;;;;;;4.68;98.92;101197.13;5082457;28;20470;-51
2023/04/02 07:26:58;;;;;;;31.52;15.35;;;;;;;4.34;98.70;101199.41;5089603;28;20044;-52
2023/04/02 07:29:25;;;;;;;33.70;16.27;;;;;;;4.34;99.69;101191.50;5089642;28;20119;-51
2023/04/02 07:31:52;;;;;;;29.10;15.38;;;;;;;4.52;99.25;101210.47;5071592;28;20066;-52
2023/04/02 07:34:19;;;;;;;32.40;15.00;;;;;;;4.57;99.01;101206.56;5075896;28;20102;-49
2023/04/02 07:36:48;;;;;;;30.27;14.45;;;;;;;4.74;98.72;101212.47;5071180;28;20048;-51
2023/04/02 07:39:14;;;;;;;29.27;14.68;;;;;;;4.79;98.70;101221.72;5075979;28;20072;-53
2023/04/02 07:41:59;;;;;;;23.20;12.88;;;;;;;4.83;98.16;101230.25;5067868;28;20056;-53
2023/04/02 07:44:27;;;;;;;26.00;12.52;;;;;;;4.71;96.16;101226.66;5093447;28;20043;-51
2023/04/02 07:46:54;;;;;;;25.20;13.23;;;;;;;4.70;96.62;101238.13;5089802;28;20066;-53
2023/04/02 07:49:21;;;;;;;25.55;11.85;;;;;;;4.63;96.80;101243.91;5095654;28;20489;-53
2023/04/02 07:51:48;;;;;;;31.33;13.38;;;;;;;4.42;96.82;101244.38;5090915;28;20048;-53
2023/04/02 07:54:14;;;;;;;21.00;11.73;;;;;;;4.57;98.02;101239.91;5095601;28;20051;-52
2023/04/02 07:56:41;;;;;;;28.27;12.18;;;;;;;4.61;97.05;101250.09;5091143;28;20044;-51
2023/04/02 07:59:08;;;;;;;23.73;11.15;;;;;;;4.76;96.97;101252.63;5082814;28;20048;-51
2023/04/02 08:01:35;;;;;;;25.90;12.00;;;;;;;4.85;97.39;101259.06;5074549;28;20402;-51
2023/04/02 08:04:03;;;;;;;26.52;13.05;;;;;;;5.02;96.50;101268.41;5070760;28;20060;-51
2023/04/02 08:06:30;;;;;;;21.88;12.45;;;;;;;5.03;96.18;101264.84;5075171;28;20045;-50
2023/04/02 08:08:57;;;;;;;25.98;13.20;;;;;;;4.92;96.19;101270.84;5069190;28;20048;-50
2023/04/02 08:11:24;;;;;;;27.60;13.68;;;;;;;5.03;95.12;101284.09;5074904;28;20048;-51
2023/04/02 08:13:51;;;;;;;26.40;14.07;;;;;;;4.81;94.98;101284.72;5070689;28;20057;-50
2023/04/02 08:16:17;;;;;;;25.15;14.45;;;;;;;4.80;95.45;101301.41;5071595;28;20123;-51
2023/04/02 08:18:46;;;;;;;30.45;14.48;;;;;;;4.67;96.11;101301.38;5074497;28;20052;-49
2023/04/02 08:21:13;;;;;;;28.23;14.52;;;;;;;4.74;95.93;101312.34;5070312;28;20055;-51
2023/04/02 08:23:41;;;;;;;35.58;15.05;;;;;;;4.78;95.16;101319.06;5087567;28;20048;-52
2023/04/02 08:26:08;;;;;;;30.33;14.88;;;;;;;4.89;95.89;101327.09;5089775;28;20055;-51
2023/04/02 08:28:35;;;;;;;28.48;14.45;;;;;;;5.12;94.20;101336.06;5094216;28;20048;-53
2023/04/02 08:31:03;;;;;;;26.42;13.82;;;;;;;5.05;93.28;101342.69;5088692;28;20043;-52
2023/04/02 08:33:30;;;;;;;25.15;13.80;;;;;;;4.96;93.21;101343.28;5087888;28;20036;-52
2023/04/02 08:35:57;;;;;;;23.80;13.52;;;;;;;4.95;93.04;101347.72;5093368;28;20432;-55
2023/04/02 08:38:24;;;;;;;26.50;12.55;;;;;;;5.22;92.58;101356.47;5087255;28;20054;-54
2023/04/02 08:40:55;;;;;;;25.17;12.07;;;;;;;5.22;93.40;101364.38;5093825;28;20040;-49
2023/04/02 08:43:51;;;;;;;21.17;11.48;;;;;;;4.95;92.02;101363.50;5087691;28;20044;-52
2023/04/02 08:46:26;;;;;;;23.83;11.93;;;;;;;5.07;92.05;101368.88;5094855;28;20036;-50
2023/04/02 08:48:57;;;;;;;24.30;11.88;;;;;;;5.02;92.02;101369.19;5084966;28;20032;-52
2023/04/02 08:51:29;;;;;;;25.60;11.85;;;;;;;5.30;92.33;101377.84;5092909;28;20469;-47
2023/04/02 08:54:01;;;;;;;;;;;;;;;5.27;89.60;101389.41;5090010;28;20032;-50
2023/04/02 08:56:32;;;;;;;;;;;;;;;5.39;92.42;101387.75;5093568;28;19930;-53
2023/04/02 08:59:08;;;;;;;22.80;10.10;;;;;;;5.57;90.22;101394.38;5088184;28;19937;-49
2023/04/02 09:01:59;;;;;;;24.50;10.50;;;;;;;5.26;89.85;101402.69;5092521;28;20036;-52
2023/04/02 09:04:28;;;;;;;23.15;9.60;;;;;;;5.37;88.25;101405.44;5084003;28;20051;-52
2023/04/02 09:06:56;;;;;;;26.38;9.32;;;;;;;5.51;89.91;101415.00;5093127;28;20164;-50
2023/04/02 09:09:24;;;;;;;17.27;9.07;;;;;;;5.43;88.33;101417.34;5088217;28;20233;-50
2023/04/02 09:12:02;;;;;;;25.75;9.30;;;;;;;5.37;88.29;101416.78;5074730;28;20040;-52
2023/04/02 09:14:40;;;;;;;19.63;8.52;;;;;;;5.19;88.97;101439.91;5088135;28;20126;-51
2023/04/02 09:17:18;;;;;;;17.08;8.82;;;;;;;5.57;88.54;101433.03;5091809;28;20055;-51
2023/04/02 09:20:00;;;;;;;16.52;8.45;;;;;;;5.71;87.60;101435.56;5098257;27;20040;-52
2023/04/02 09:22:31;;;;;;;19.30;8.88;;;;;;;5.79;86.73;101434.19;5088913;28;20072;-50
2023/04/02 09:25:01;;;;;;;17.35;9.00;;;;;;;5.90;88.56;101432.47;5089519;28;20485;-48
2023/04/02 09:27:32;;;;;;;21.05;9.13;;;;;;;5.78;85.93;101449.13;5092055;28;20039;-48
2023/04/02 09:30:09;;;;;;;18.45;9.60;;;;;;;5.81;86.72;101440.19;5088043;28;20126;-51
2023/04/02 09:32:54;;;;;;;14.35;8.55;;;;;;;5.90;86.39;101452.72;5091428;28;20530;-52
2023/04/02 09:35:25;;;;;;;16.25;9.10;;;;;;;5.88;85.49;101457.25;5087516;28;20039;-52
2023/04/02 09:38:21;;;;;;;14.88;7.75;;;;;;;5.66;84.61;101464.00;5088534;28;20503;-52
2023/04/02 09:41:01;;;;;;;16.88;7.55;;;;;;;6.07;83.50;101478.75;5090651;28;20489;-51
2023/04/02 09:43:31;;;;;;;12.93;7.03;;;;;;;5.76;83.23;101482.63;5076344;28;21537;-60
2023/04/02 09:46:03;;;;;;;15.98;7.15;;;;;;;5.83;84.03;101481.25;5087836;28;20075;-60
2023/04/02 09:48:34;;;;;;;12.75;6.40;;;;;;;5.94;82.55;101494.53;5092542;28;20055;-60
2023/04/02 09:51:11;;;;;;;15.02;7.00;;;;;;;6.00;83.80;101497.72;5088262;28;20126;-60
2023/04/02 09:53:42;;;;;;;12.45;6.28;;;;;;;6.17;83.52;101496.53;5088809;28;20047;-60
2023/04/02 09:56:15;;;;;;;12.02;6.68;;;;;;;6.09;80.85;101497.94;5090759;28;20040;-60
2023/04/02 09:58:44;;;;;;;13.57;6.07;;;;;;;6.40;82.07;101510.75;5086805;28;20083;-60
2023/04/02 10:01:33;;;;;;;12.55;5.55;;;;;;;6.64;81.78;101513.44;5091012;28;20085;-60
2023/04/02 10:04:02;;;;;;;11.98;5.70;;;;;;;6.68;79.77;101531.56;5089299;28;20398;-59
2023/04/02 10:06:31;;;;;;;13.15;5.75;;;;;;;6.63;78.60;101538.13;5092443;28;20066;-60
2023/04/02 10:09:18;;;;;;;14.57;6.00;;;;;;;6.69;79.96;101538.53;5084544;28;20564;-60
2023/04/02 10:11:47;;;;;;;12.65;6.00;;;;;;;6.80;80.40;101534.28;5092131;28;20119;-60
2023/04/02 10:14:19;;;;;;;12.25;5.30;;;;;;;6.54;77.38;101529.06;5086236;28;20089;-60
2023/04/02 10:16:49;;;;;;;;;;;;;;;6.68;79.71;101536.84;5090935;28;20048;-58
2023/04/02 10:19:39;;;;;;;12.98;5.78;;;;;;;6.31;77.83;101543.84;5086868;28;19924;-59
2023/04/02 10:22:13;;;;;;;12.73;5.90;;;;;;;6.93;77.51;101545.66;5091935;28;20432;-59
2023/04/02 10:24:40;;;;;;;11.10;5.10;;;;;;;6.98;76.60;101543.50;5083835;28;20055;-59
2023/04/02 10:27:36;;;;;;;15.35;5.60;;;;;;;6.78;77.27;101562.56;5092078;28;20235;-58
2023/04/02 10:30:25;;;;;;;13.38;5.30;;;;;;;7.21;77.73;101564.75;5057297;28;20040;-59
2023/04/02 10:33:02;;;;;;;12.25;4.90;;;;;;;7.43;75.66;101575.41;5092013;28;20488;-59
2023/04/02 10:39:01;;;;;;;9.10;4.60;;;;;;;7.28;77.32;101582.66;5109969;27;20497;-61
2023/04/02 10:41:35;;;;;;;12.68;4.40;;;;;;;7.26;74.85;101596.94;5106054;28;20051;-59
2023/04/02 10:44:42;;;;;;;8.73;3.90;;;;;;;7.45;74.78;101601.69;5108498;28;20040;-59
2023/04/02 10:47:36;;;;;;;9.15;4.07;;;;;;;7.23;75.42;101603.25;5105186;28;20040;-59
2023/04/02 10:52:56;;;;;;;11.70;4.50;;;;;;;7.16;75.58;101612.56;5109867;27;20362;-61
2023/04/02 10:55:29;;;;;;;11.88;4.85;;;;;;;7.23;74.83;101620.91;5105078;28;20479;-60
2023/04/02 10:58:03;;;;;;;16.13;4.90;;;;;;;7.46;75.13;101622.72;5106574;28;20054;-61
2023/04/02 11:00:36;;;;;;;13.52;4.63;;;;;;;7.86;74.03;101632.13;5109964;28;20044;-59
2023/04/02 11:03:42;;;;;;;12.45;4.70;;;;;;;7.89;75.30;101629.25;5104928;28;20036;-60
2023/04/02 11:06:20;;;;;;;12.15;5.10;;;;;;;7.83;72.58;101629.72;5107805;28;20374;-64
2023/04/02 11:08:50;;;;;;;14.48;5.22;;;;;;;7.37;73.66;101639.22;5105110;28;20420;-60
2023/04/02 11:11:21;;;;;;;9.13;4.63;;;;;;;7.50;73.85;101640.00;5109692;28;20044;-61
2023/04/02 11:14:24;;;;;;;16.20;5.30;;;;;;;7.44;75.28;101651.03;5101752;28;20075;-60
2023/04/02 11:16:53;;;;;;;10.30;4.10;;;;;;;7.71;73.71;101657.03;5109197;28;20044;-61
2023/04/02 11:19:24;;;;;;;10.60;3.92;;;;;;;8.00;73.55;101658.34;5104708;28;20066;-60
2023/04/02 11:21:54;;;;;;;;;;;;;;;7.92;71.93;101658.09;5109871;28;20044;-59
2023/04/02 11:27:16;;;;;;;12.65;4.38;;;;;;;7.46;72.36;101661.47;5109037;27;20380;-59
2023/04/02 11:30:10;;;;;;;11.10;4.22;;;;;;;7.54;71.65;101669.66;5099023;28;20033;-59
2023/04/02 11:32:41;;;;;;;10.70;4.60;;;;;;;7.76;73.21;101671.56;5108730;28;20089;-58
2023/04/02 11:35:35;;;;;;;12.95;4.72;;;;;;;7.88;72.38;101673.31;5103178;28;20050;-61
2023/04/02 11:38:20;;;;;;;9.38;4.53;;;;;;;7.97;72.19;101685.00;5108314;28;20180;-60
2023/04/02 11:40:55;;;;;;;12.00;4.30;;;;;;;7.92;70.62;101681.88;5101673;28;20036;-61
2023/04/02 11:49:12;;;;;;;11.30;4.40;;;;;;;7.80;70.28;101690.69;5070301;28;20714;-60
2023/04/02 11:51:47;;;;;;;9.25;3.90;;;;;;;7.76;70.67;101691.88;5065184;28;20041;-60
2023/04/02 11:54:35;;;;;;;9.10;3.85;;;;;;;7.96;71.21;101680.66;5070004;28;20036;-60
2023/04/02 11:57:22;;;;;;;11.23;4.07;;;;;;;7.91;69.71;101701.31;5065260;28;20420;-60
2023/04/02 12:00:13;;;;;;;8.77;4.18;;;;;;;7.95;71.03;101697.50;5069576;28;20051;-61
2023/04/02 12:03:21;;;;;;;10.10;4.22;;;;;;;7.95;70.73;101700.13;5066234;28;20052;-59
2023/04/02 12:05:57;;;;;;;10.90;4.00;;;;;;;7.98;68.57;101709.63;5069618;28;20044;-62
2023/04/02 12:08:53;;;;;;;9.23;4.13;;;;;;;8.29;68.88;101708.16;5064402;28;20123;-61
2023/04/02 12:11:40;;;;;;;10.23;4.07;;;;;;;8.83;69.45;101718.19;5067995;28;20055;-63
2023/04/02 12:17:36;;;;;;;11.30;4.32;;;;;;;9.06;63.73;101734.09;5106683;27;20132;-60
2023/04/02 12:20:19;;;;;;;11.57;3.80;;;;;;;8.90;65.13;101730.94;5109509;28;20051;-59
2023/04/02 12:22:50;;;;;;;11.63;4.28;;;;;;;8.92;63.81;101731.66;5107769;28;20496;-59
2023/04/02 12:25:22;;;;;;;11.23;4.10;;;;;;;8.36;66.22;101735.00;5107583;28;20028;-61
2023/04/02 12:30:47;;;;;;;13.70;4.40;;;;;;;8.55;65.44;101742.41;5110821;27;20707;-59
2023/04/02 12:33:36;;;;;;;13.48;3.60;;;;;;;10.51;62.17;101752.44;5105860;28;20328;-59
2023/04/02 12:36:16;;;;;;;10.15;3.30;;;;;;;12.94;54.50;101745.91;5108907;28;20485;-60
2023/04/02 12:38:53;;;;;;;11.90;4.20;;;;;;;12.58;53.39;101763.53;5116161;28;20104;-60
2023/04/02 12:41:28;;;;;;;10.45;3.97;;;;;;;12.26;52.85;101754.00;5110589;28;20034;-60
2023/04/02 12:44:00;;;;;;;7.53;3.03;;;;;;;10.85;55.80;101757.50;5109163;28;20046;-60
2023/04/02 12:46:29;;;;;;;9.85;3.45;;;;;;;10.04;59.34;101774.88;5110358;28;20032;-59
2023/04/02 12:49:04;;;;;;;8.02;3.20;;;;;;;9.54;59.77;101768.22;5105087;28;20040;-59
2023/04/02 12:51:34;;;;;;;8.77;3.55;;;;;;;9.89;60.29;101769.03;5106093;28;20127;-59